Home   Weather   India   Chhapra   Past weeks
Flag for India

Past Weather in Chhapra, Bihar, India — Yesterday and Last 2 Weeks

Currently: 79 °F. Fog. (Weather station: Patna Airport, India). See more current weather

Past Weather in Chhapra — Graph

°F

Chhapra Temperature Yesterday

Maximum temperature yesterday: 86 °F (at 2:00 pm)
Minimum temperature yesterday: 77 °F (at 6:00 am)
Average temperature yesterday: 81 °F

High & Low Weather Summary for the Past Weeks

 TemperatureHumidityPressure
High90 °F (Jul 12, 1:00 pm)100% (Jul 18, 2:00 pm)29.71 "Hg (Jul 18, 2:00 pm)
Low73 °F (Jul 18, 1:00 pm)52% (Jul 14, 2:00 pm)29.30 "Hg (Jul 23, 4:30 pm)
Average82 °F75%29.54 "Hg
* Reported Jul 10 4:30 am — Jul 25 5:00 am, Chhapra. Weather by CustomWeather, © 2021

Note: Actual official high and low records may vary slightly from our data, if they occured in-between our weather recording intervals... More about our weather records

Chhapra Weather History for the Previous 24 Hours

Scroll right to see more
 ConditionsComfort  
Time TempWeatherWind HumidityBarometerVisibility
5:00 am
Sun, Jul 25
79 °FFog.7 mph89%29.47 "Hg2 mi
4:30 am79 °FFog.7 mph89%29.47 "Hg2 mi
4:00 am79 °FFog.7 mph89%29.47 "Hg2 mi
3:00 am79 °FFog.8 mph89%29.47 "Hg2 mi
2:30 am79 °FFog.8 mph89%29.47 "Hg2 mi
1:30 am79 °FFog.10 mph89%29.47 "Hg2 mi
1:00 am79 °FFog.10 mph89%29.47 "Hg2 mi
12:30 am79 °FFog.9 mph89%29.47 "Hg2 mi
12:00 am79 °FFog.8 mph84%29.47 "Hg2 mi
11:30 pm
Sat, Jul 24
79 °FFog.8 mph84%29.47 "Hg2 mi
11:00 pm79 °FFog.9 mph84%29.50 "Hg2 mi
10:30 pm79 °FFog.8 mph84%29.50 "Hg2 mi
10:00 pm81 °FFog.6 mph79%29.47 "Hg2 mi
9:30 pm81 °FFog.7 mph79%29.47 "Hg2 mi
9:00 pm81 °FFog.8 mph79%29.47 "Hg2 mi
8:30 pm81 °FFog.6 mph84%29.45 "Hg2 mi
8:00 pm81 °FFog.10 mph84%29.45 "Hg2 mi
7:30 pm81 °FFog.9 mph84%29.42 "Hg2 mi
7:00 pm77 °FBroken clouds.3 mph94%29.42 "Hg2 mi
6:00 pm77 °FLight rain. Broken clouds.6 mph89%29.42 "Hg1 mi
5:30 pm82 °FLight rain. Broken clouds.14 mph74%29.39 "Hg1 mi
5:00 pm82 °FBroken clouds.12 mph74%29.39 "Hg2 mi
4:30 pm84 °FBroken clouds.14 mph70%29.39 "Hg3 mi
4:00 pm86 °FBroken clouds.9 mph66%29.39 "Hg3 mi
3:30 pm86 °FBroken clouds.12 mph66%29.39 "Hg3 mi
3:00 pm86 °FBroken clouds.12 mph66%29.39 "Hg3 mi
2:30 pm86 °FBroken clouds.12 mph66%29.42 "Hg3 mi
2:00 pm86 °FBroken clouds.9 mph66%29.42 "Hg2 mi
1:30 pm84 °FBroken clouds.9 mph70%29.42 "Hg2 mi
1:00 pm84 °FBroken clouds.9 mph70%29.45 "Hg2 mi
12:30 pm84 °FBroken clouds.9 mph70%29.45 "Hg2 mi
12:00 pm82 °FBroken clouds.9 mph74%29.47 "Hg2 mi
11:30 am82 °FBroken clouds.9 mph74%29.47 "Hg2 mi
11:00 am82 °FBroken clouds.9 mph74%29.47 "Hg2 mi
10:30 am82 °FBroken clouds.9 mph74%29.47 "Hg2 mi
10:00 am82 °FBroken clouds.9 mph74%29.47 "Hg2 mi
9:30 am82 °FBroken clouds.9 mph74%29.47 "Hg2 mi
9:00 am81 °FBroken clouds.9 mph79%29.47 "Hg2 mi
8:40 am81 °FLight rain. Broken clouds.9 mph79%29.47 "Hg2 mi
8:30 am81 °FBroken clouds.9 mph79%29.47 "Hg2 mi
8:00 am81 °FBroken clouds.9 mph79%29.45 "Hg2 mi
7:30 am79 °FBroken clouds.9 mph84%29.45 "Hg2 mi
7:00 am79 °FBroken clouds.9 mph84%29.45 "Hg2 mi
6:30 am79 °FBroken clouds.14 mph84%29.42 "Hg2 mi
6:00 am77 °FLight rain. Broken clouds.12 mph89%29.42 "Hg1 mi
Weather by CustomWeather, © 2021

See weather overview